sensor_id;sensor_type;location;lat;lon;timestamp;temperature;humidity
43089;DHT22;28709;52.030;5.652;2022-09-12T00:00:45;15.50;99.90
43089;DHT22;28709;52.030;5.652;2022-09-12T00:03:11;15.50;99.90
43089;DHT22;28709;52.030;5.652;2022-09-12T00:05:43;15.40;99.90
43089;DHT22;28709;52.030;5.652;2022-09-12T00:08:11;15.50;99.90
43089;DHT22;28709;52.030;5.652;2022-09-12T00:10:41;15.50;99.90
43089;DHT22;28709;52.030;5.652;2022-09-12T00:13:08;15.50;99.90
43089;DHT22;28709;52.030;5.652;2022-09-12T00:15:38;15.50;99.90
43089;DHT22;28709;52.030;5.652;2022-09-12T00:18:04;15.50;99.90
43089;DHT22;28709;52.030;5.652;2022-09-12T00:20:30;15.50;99.90
43089;DHT22;28709;52.030;5.652;2022-09-12T00:22:56;15.50;99.90
43089;DHT22;28709;52.030;5.652;2022-09-12T00:25:21;15.50;99.90
43089;DHT22;28709;52.030;5.652;2022-09-12T00:27:47;15.40;99.90
43089;DHT22;28709;52.030;5.652;2022-09-12T00:30:13;15.40;99.90
43089;DHT22;28709;52.030;5.652;2022-09-12T00:32:38;15.50;99.90
43089;DHT22;28709;52.030;5.652;2022-09-12T00:35:04;15.40;99.90
43089;DHT22;28709;52.030;5.652;2022-09-12T00:37:30;15.40;99.90
43089;DHT22;28709;52.030;5.652;2022-09-12T00:39:55;15.40;99.90
43089;DHT22;28709;52.030;5.652;2022-09-12T00:42:21;15.40;99.90
43089;DHT22;28709;52.030;5.652;2022-09-12T00:44:50;15.40;99.90
43089;DHT22;28709;52.030;5.652;2022-09-12T00:47:22;15.40;99.90
43089;DHT22;28709;52.030;5.652;2022-09-12T00:50:08;15.40;99.90
43089;DHT22;28709;52.030;5.652;2022-09-12T00:52:40;15.40;99.90
43089;DHT22;28709;52.030;5.652;2022-09-12T00:55:20;15.30;99.90
43089;DHT22;28709;52.030;5.652;2022-09-12T00:57:56;15.30;99.90
43089;DHT22;28709;52.030;5.652;2022-09-12T01:00:25;15.30;99.90
43089;DHT22;28709;52.030;5.652;2022-09-12T01:03:04;15.30;99.90
43089;DHT22;28709;52.030;5.652;2022-09-12T01:05:33;15.20;99.90
43089;DHT22;28709;52.030;5.652;2022-09-12T01:08:01;15.20;99.90
43089;DHT22;28709;52.030;5.652;2022-09-12T01:10:27;15.20;99.90
43089;DHT22;28709;52.030;5.652;2022-09-12T01:12:53;15.20;99.90
43089;DHT22;28709;52.030;5.652;2022-09-12T01:15:18;15.20;99.90
43089;DHT22;28709;52.030;5.652;2022-09-12T01:18:04;15.20;99.90
43089;DHT22;28709;52.030;5.652;2022-09-12T01:23:09;15.20;99.90
43089;DHT22;28709;52.030;5.652;2022-09-12T01:33:59;15.20;99.90
43089;DHT22;28709;52.030;5.652;2022-09-12T01:47:39;15.20;99.90
43089;DHT22;28709;52.030;5.652;2022-09-12T01:50:24;15.20;99.90
43089;DHT22;28709;52.030;5.652;2022-09-12T01:52:56;15.10;99.90
43089;DHT22;28709;52.030;5.652;2022-09-12T01:55:36;15.20;99.90
43089;DHT22;28709;52.030;5.652;2022-09-12T02:00:51;15.20;99.90
43089;DHT22;28709;52.030;5.652;2022-09-12T02:03:23;15.10;99.90
43089;DHT22;28709;52.030;5.652;2022-09-12T02:06:08;15.20;99.90
43089;DHT22;28709;52.030;5.652;2022-09-12T02:08:40;15.10;99.90
43089;DHT22;28709;52.030;5.652;2022-09-12T02:11:10;15.10;99.90
43089;DHT22;28709;52.030;5.652;2022-09-12T02:13:46;15.10;99.90
43089;DHT22;28709;52.030;5.652;2022-09-12T02:16:19;15.10;99.90
43089;DHT22;28709;52.030;5.652;2022-09-12T02:18:51;15.10;99.90
43089;DHT22;28709;52.030;5.652;2022-09-12T02:21:18;15.10;99.90
43089;DHT22;28709;52.030;5.652;2022-09-12T02:23:56;15.10;99.90
43089;DHT22;28709;52.030;5.652;2022-09-12T02:26:28;15.00;99.90
43089;DHT22;28709;52.030;5.652;2022-09-12T02:28:54;15.00;99.90
43089;DHT22;28709;52.030;5.652;2022-09-12T02:31:41;14.90;99.90
43089;DHT22;28709;52.030;5.652;2022-09-12T02:34:37;15.00;99.90
43089;DHT22;28709;52.030;5.652;2022-09-12T02:37:26;14.90;99.90
43089;DHT22;28709;52.030;5.652;2022-09-12T02:39:55;14.90;99.90
43089;DHT22;28709;52.030;5.652;2022-09-12T02:42:21;14.80;99.90
43089;DHT22;28709;52.030;5.652;2022-09-12T02:44:48;14.80;99.90
43089;DHT22;28709;52.030;5.652;2022-09-12T02:49:47;14.80;99.90
43089;DHT22;28709;52.030;5.652;2022-09-12T02:52:13;14.80;99.90
43089;DHT22;28709;52.030;5.652;2022-09-12T02:54:38;14.70;99.90
43089;DHT22;28709;52.030;5.652;2022-09-12T02:57:14;14.70;99.90
43089;DHT22;28709;52.030;5.652;2022-09-12T02:59:40;14.60;99.90
43089;DHT22;28709;52.030;5.652;2022-09-12T03:02:27;14.60;99.90
43089;DHT22;28709;52.030;5.652;2022-09-12T03:05:21;14.60;99.90
43089;DHT22;28709;52.030;5.652;2022-09-12T03:13:39;14.50;99.90
43089;DHT22;28709;52.030;5.652;2022-09-12T03:19:24;14.40;99.90
43089;DHT22;28709;52.030;5.652;2022-09-12T03:22:18;14.40;99.90
43089;DHT22;28709;52.030;5.652;2022-09-12T03:27:35;14.40;99.90
43089;DHT22;28709;52.030;5.652;2022-09-12T03:30:05;14.40;99.90
43089;DHT22;28709;52.030;5.652;2022-09-12T03:32:52;14.30;99.90
43089;DHT22;28709;52.030;5.652;2022-09-12T03:35:21;14.40;99.90
43089;DHT22;28709;52.030;5.652;2022-09-12T03:37:47;14.40;99.90
43089;DHT22;28709;52.030;5.652;2022-09-12T03:40:13;14.40;99.90
43089;DHT22;28709;52.030;5.652;2022-09-12T03:42:40;14.30;99.90
43089;DHT22;28709;52.030;5.652;2022-09-12T03:45:07;14.40;99.90
43089;DHT22;28709;52.030;5.652;2022-09-12T03:47:33;14.30;99.90
43089;DHT22;28709;52.030;5.652;2022-09-12T03:49:59;14.40;99.90
43089;DHT22;28709;52.030;5.652;2022-09-12T03:52:24;14.40;99.90
43089;DHT22;28709;52.030;5.652;2022-09-12T03:54:50;14.40;99.90
43089;DHT22;28709;52.030;5.652;2022-09-12T03:57:16;14.50;99.90
43089;DHT22;28709;52.030;5.652;2022-09-12T03:59:41;14.50;99.90
43089;DHT22;28709;52.030;5.652;2022-09-12T04:02:07;14.50;99.90
43089;DHT22;28709;52.030;5.652;2022-09-12T04:04:36;14.50;99.90
43089;DHT22;28709;52.030;5.652;2022-09-12T04:07:01;14.50;99.90
43089;DHT22;28709;52.030;5.652;2022-09-12T04:09:27;14.50;99.90
43089;DHT22;28709;52.030;5.652;2022-09-12T04:11:52;14.50;99.90
43089;DHT22;28709;52.030;5.652;2022-09-12T04:14:18;14.50;99.90
43089;DHT22;28709;52.030;5.652;2022-09-12T04:16:43;14.50;99.90
43089;DHT22;28709;52.030;5.652;2022-09-12T04:19:10;14.60;99.90
43089;DHT22;28709;52.030;5.652;2022-09-12T04:21:36;14.60;99.90
43089;DHT22;28709;52.030;5.652;2022-09-12T04:24:02;14.60;99.90
43089;DHT22;28709;52.030;5.652;2022-09-12T04:26:27;14.60;99.90
43089;DHT22;28709;52.030;5.652;2022-09-12T04:28:54;14.50;99.90
43089;DHT22;28709;52.030;5.652;2022-09-12T04:31:22;14.50;99.90
43089;DHT22;28709;52.030;5.652;2022-09-12T04:33:56;14.50;99.90
43089;DHT22;28709;52.030;5.652;2022-09-12T04:36:22;14.50;99.90
43089;DHT22;28709;52.030;5.652;2022-09-12T04:38:49;14.50;99.90
43089;DHT22;28709;52.030;5.652;2022-09-12T04:43:41;14.50;99.90
43089;DHT22;28709;52.030;5.652;2022-09-12T04:46:10;14.40;99.90
43089;DHT22;28709;52.030;5.652;2022-09-12T04:48:36;14.40;99.90
43089;DHT22;28709;52.030;5.652;2022-09-12T04:51:09;14.50;99.90
43089;DHT22;28709;52.030;5.652;2022-09-12T04:53:35;14.50;99.90
43089;DHT22;28709;52.030;5.652;2022-09-12T04:56:03;14.50;99.90
43089;DHT22;28709;52.030;5.652;2022-09-12T04:58:30;14.50;99.90
43089;DHT22;28709;52.030;5.652;2022-09-12T05:01:03;14.50;99.90
43089;DHT22;28709;52.030;5.652;2022-09-12T05:03:29;14.50;99.90
43089;DHT22;28709;52.030;5.652;2022-09-12T05:05:54;14.50;99.90
43089;DHT22;28709;52.030;5.652;2022-09-12T05:08:20;14.60;99.90
43089;DHT22;28709;52.030;5.652;2022-09-12T05:10:45;14.60;99.90
43089;DHT22;28709;52.030;5.652;2022-09-12T05:13:11;14.60;99.90
43089;DHT22;28709;52.030;5.652;2022-09-12T05:15:37;14.60;99.90
43089;DHT22;28709;52.030;5.652;2022-09-12T05:18:03;14.60;99.90
43089;DHT22;28709;52.030;5.652;2022-09-12T05:20:28;14.60;99.90
43089;DHT22;28709;52.030;5.652;2022-09-12T05:22:54;14.60;99.90
43089;DHT22;28709;52.030;5.652;2022-09-12T05:25:20;14.60;99.90
43089;DHT22;28709;52.030;5.652;2022-09-12T05:27:45;14.60;99.90
43089;DHT22;28709;52.030;5.652;2022-09-12T05:30:11;14.70;99.90
43089;DHT22;28709;52.030;5.652;2022-09-12T05:32:37;14.70;99.90
43089;DHT22;28709;52.030;5.652;2022-09-12T05:35:02;14.70;99.90
43089;DHT22;28709;52.030;5.652;2022-09-12T05:37:28;14.70;99.90
43089;DHT22;28709;52.030;5.652;2022-09-12T05:39:54;14.70;99.90
43089;DHT22;28709;52.030;5.652;2022-09-12T05:42:20;14.70;99.90
43089;DHT22;28709;52.030;5.652;2022-09-12T05:44:45;14.70;99.90
43089;DHT22;28709;52.030;5.652;2022-09-12T05:47:11;14.80;99.90
43089;DHT22;28709;52.030;5.652;2022-09-12T05:49:37;14.80;99.90
43089;DHT22;28709;52.030;5.652;2022-09-12T05:52:03;14.80;99.90
43089;DHT22;28709;52.030;5.652;2022-09-12T05:54:28;14.80;99.90
43089;DHT22;28709;52.030;5.652;2022-09-12T05:56:54;14.90;99.90
43089;DHT22;28709;52.030;5.652;2022-09-12T05:59:20;14.90;99.90
43089;DHT22;28709;52.030;5.652;2022-09-12T06:01:47;14.80;99.90
43089;DHT22;28709;52.030;5.652;2022-09-12T06:04:12;14.80;99.90
43089;DHT22;28709;52.030;5.652;2022-09-12T06:06:42;14.90;99.90
43089;DHT22;28709;52.030;5.652;2022-09-12T06:09:10;14.90;99.90
43089;DHT22;28709;52.030;5.652;2022-09-12T06:11:37;14.90;99.90
43089;DHT22;28709;52.030;5.652;2022-09-12T06:14:05;14.90;99.90
43089;DHT22;28709;52.030;5.652;2022-09-12T06:16:32;14.90;99.90
43089;DHT22;28709;52.030;5.652;2022-09-12T06:19:06;14.90;99.90
43089;DHT22;28709;52.030;5.652;2022-09-12T06:21:32;15.00;99.90
43089;DHT22;28709;52.030;5.652;2022-09-12T06:24:03;15.00;99.90
43089;DHT22;28709;52.030;5.652;2022-09-12T06:26:29;15.00;99.90
43089;DHT22;28709;52.030;5.652;2022-09-12T06:28:56;15.00;99.90
43089;DHT22;28709;52.030;5.652;2022-09-12T06:31:26;15.00;99.90
43089;DHT22;28709;52.030;5.652;2022-09-12T06:33:53;15.00;99.90
43089;DHT22;28709;52.030;5.652;2022-09-12T06:36:30;15.10;99.90
43089;DHT22;28709;52.030;5.652;2022-09-12T06:39:03;15.10;99.90
43089;DHT22;28709;52.030;5.652;2022-09-12T06:41:30;15.10;99.90
43089;DHT22;28709;52.030;5.652;2022-09-12T06:43:57;15.10;99.90
43089;DHT22;28709;52.030;5.652;2022-09-12T06:46:23;15.10;99.90
43089;DHT22;28709;52.030;5.652;2022-09-12T06:48:49;15.20;99.90
43089;DHT22;28709;52.030;5.652;2022-09-12T06:51:17;15.20;99.90
43089;DHT22;28709;52.030;5.652;2022-09-12T06:53:44;15.20;99.90
43089;DHT22;28709;52.030;5.652;2022-09-12T06:56:12;15.30;99.90
43089;DHT22;28709;52.030;5.652;2022-09-12T06:58:39;15.40;99.90
43089;DHT22;28709;52.030;5.652;2022-09-12T07:01:08;15.60;99.90
43089;DHT22;28709;52.030;5.652;2022-09-12T07:03:34;15.80;99.90
43089;DHT22;28709;52.030;5.652;2022-09-12T07:06:02;16.00;99.90
43089;DHT22;28709;52.030;5.652;2022-09-12T07:08:28;16.10;99.90
43089;DHT22;28709;52.030;5.652;2022-09-12T07:10:55;16.20;99.90
43089;DHT22;28709;52.030;5.652;2022-09-12T07:13:22;16.20;99.90
43089;DHT22;28709;52.030;5.652;2022-09-12T07:15:47;16.20;99.90
43089;DHT22;28709;52.030;5.652;2022-09-12T07:18:13;16.20;99.90
43089;DHT22;28709;52.030;5.652;2022-09-12T07:20:39;16.30;99.90
43089;DHT22;28709;52.030;5.652;2022-09-12T07:23:05;16.30;99.90
43089;DHT22;28709;52.030;5.652;2022-09-12T07:25:30;16.40;99.90
43089;DHT22;28709;52.030;5.652;2022-09-12T07:27:56;16.50;99.90
43089;DHT22;28709;52.030;5.652;2022-09-12T07:30:22;16.70;99.90
43089;DHT22;28709;52.030;5.652;2022-09-12T07:32:54;16.80;99.90
43089;DHT22;28709;52.030;5.652;2022-09-12T07:35:20;16.90;99.90
43089;DHT22;28709;52.030;5.652;2022-09-12T07:37:46;17.10;99.90
43089;DHT22;28709;52.030;5.652;2022-09-12T07:40:11;17.20;99.90
43089;DHT22;28709;52.030;5.652;2022-09-12T07:42:37;17.40;99.90
43089;DHT22;28709;52.030;5.652;2022-09-12T07:45:03;17.50;99.90
43089;DHT22;28709;52.030;5.652;2022-09-12T07:47:28;17.50;99.90
43089;DHT22;28709;52.030;5.652;2022-09-12T07:49:54;17.70;99.90
43089;DHT22;28709;52.030;5.652;2022-09-12T07:52:19;17.90;99.90
43089;DHT22;28709;52.030;5.652;2022-09-12T07:54:45;18.10;99.90
43089;DHT22;28709;52.030;5.652;2022-09-12T07:57:11;18.30;99.90
43089;DHT22;28709;52.030;5.652;2022-09-12T07:59:36;18.50;99.90
43089;DHT22;28709;52.030;5.652;2022-09-12T08:02:12;18.60;99.90
43089;DHT22;28709;52.030;5.652;2022-09-12T08:04:39;18.80;99.90
43089;DHT22;28709;52.030;5.652;2022-09-12T08:07:06;19.00;99.90
43089;DHT22;28709;52.030;5.652;2022-09-12T08:09:32;19.10;99.90
43089;DHT22;28709;52.030;5.652;2022-09-12T08:11:57;19.20;99.90
43089;DHT22;28709;52.030;5.652;2022-09-12T08:14:23;19.30;99.90
43089;DHT22;28709;52.030;5.652;2022-09-12T08:16:49;19.50;99.90
43089;DHT22;28709;52.030;5.652;2022-09-12T08:19:14;19.60;99.90
43089;DHT22;28709;52.030;5.652;2022-09-12T08:21:40;19.60;99.90
43089;DHT22;28709;52.030;5.652;2022-09-12T08:24:06;19.70;99.90
43089;DHT22;28709;52.030;5.652;2022-09-12T08:26:32;19.90;99.90
43089;DHT22;28709;52.030;5.652;2022-09-12T08:28:58;20.10;99.90
43089;DHT22;28709;52.030;5.652;2022-09-12T08:31:25;20.20;99.90
43089;DHT22;28709;52.030;5.652;2022-09-12T08:33:54;20.40;99.90
43089;DHT22;28709;52.030;5.652;2022-09-12T08:36:23;20.60;99.90
43089;DHT22;28709;52.030;5.652;2022-09-12T08:38:50;20.80;99.90
43089;DHT22;28709;52.030;5.652;2022-09-12T08:41:43;20.90;99.90
43089;DHT22;28709;52.030;5.652;2022-09-12T08:47:18;21.00;99.90
43089;DHT22;28709;52.030;5.652;2022-09-12T08:50:08;21.20;99.90
43089;DHT22;28709;52.030;5.652;2022-09-12T08:55:24;21.50;99.90
43089;DHT22;28709;52.030;5.652;2022-09-12T08:57:51;21.70;99.90
43089;DHT22;28709;52.030;5.652;2022-09-12T09:00:18;22.00;99.90
43089;DHT22;28709;52.030;5.652;2022-09-12T09:10:41;22.50;99.90
43089;DHT22;28709;52.030;5.652;2022-09-12T09:16:38;22.70;99.90
43089;DHT22;28709;52.030;5.652;2022-09-12T09:19:12;22.70;99.90
43089;DHT22;28709;52.030;5.652;2022-09-12T09:22:13;22.90;99.90
43089;DHT22;28709;52.030;5.652;2022-09-12T09:24:46;23.10;99.90
43089;DHT22;28709;52.030;5.652;2022-09-12T09:27:28;23.30;99.90
43089;DHT22;28709;52.030;5.652;2022-09-12T09:29:56;23.40;99.90
43089;DHT22;28709;52.030;5.652;2022-09-12T09:32:37;23.60;99.90
43089;DHT22;28709;52.030;5.652;2022-09-12T09:35:16;23.70;99.90
43089;DHT22;28709;52.030;5.652;2022-09-12T09:40:51;23.90;99.90
43089;DHT22;28709;52.030;5.652;2022-09-12T09:43:21;24.10;99.90
43089;DHT22;28709;52.030;5.652;2022-09-12T09:45:49;24.20;99.90
43089;DHT22;28709;52.030;5.652;2022-09-12T09:48:36;24.30;99.90
43089;DHT22;28709;52.030;5.652;2022-09-12T09:51:03;24.50;99.90
43089;DHT22;28709;52.030;5.652;2022-09-12T09:53:55;24.60;99.80
43089;DHT22;28709;52.030;5.652;2022-09-12T09:56:40;24.70;99.80
43089;DHT22;28709;52.030;5.652;2022-09-12T09:59:19;24.70;99.70
43089;DHT22;28709;52.030;5.652;2022-09-12T10:01:54;24.70;99.60
43089;DHT22;28709;52.030;5.652;2022-09-12T10:04:23;24.80;99.20
43089;DHT22;28709;52.030;5.652;2022-09-12T10:06:57;24.90;99.30
43089;DHT22;28709;52.030;5.652;2022-09-12T10:11:55;25.10;98.60
43089;DHT22;28709;52.030;5.652;2022-09-12T10:14:37;25.10;98.40
43089;DHT22;28709;52.030;5.652;2022-09-12T10:19:52;25.10;97.60
43089;DHT22;28709;52.030;5.652;2022-09-12T10:22:21;25.00;97.50
43089;DHT22;28709;52.030;5.652;2022-09-12T10:24:50;25.10;97.30
43089;DHT22;28709;52.030;5.652;2022-09-12T10:27:34;25.10;97.20
43089;DHT22;28709;52.030;5.652;2022-09-12T10:30:14;25.30;97.50
43089;DHT22;28709;52.030;5.652;2022-09-12T10:32:44;25.60;97.10
43089;DHT22;28709;52.030;5.652;2022-09-12T10:35:19;25.70;96.80
43089;DHT22;28709;52.030;5.652;2022-09-12T10:38:00;25.70;96.50
43089;DHT22;28709;52.030;5.652;2022-09-12T10:40:30;25.80;96.60
43089;DHT22;28709;52.030;5.652;2022-09-12T10:42:59;25.90;96.60
43089;DHT22;28709;52.030;5.652;2022-09-12T10:45:28;26.00;96.00
43089;DHT22;28709;52.030;5.652;2022-09-12T10:47:56;26.00;95.70
43089;DHT22;28709;52.030;5.652;2022-09-12T10:50:26;25.90;95.40
43089;DHT22;28709;52.030;5.652;2022-09-12T10:52:53;25.90;95.80
43089;DHT22;28709;52.030;5.652;2022-09-12T10:55:25;26.00;96.10
43089;DHT22;28709;52.030;5.652;2022-09-12T10:58:58;26.20;95.50
43089;DHT22;28709;52.030;5.652;2022-09-12T11:01:07;26.30;95.10
43089;DHT22;28709;52.030;5.652;2022-09-12T11:06:19;26.50;94.40
43089;DHT22;28709;52.030;5.652;2022-09-12T11:09:12;26.60;94.30
43089;DHT22;28709;52.030;5.652;2022-09-12T11:12:23;26.60;94.00
43089;DHT22;28709;52.030;5.652;2022-09-12T11:17:39;26.70;93.40
43089;DHT22;28709;52.030;5.652;2022-09-12T11:20:34;26.70;92.70
43089;DHT22;28709;52.030;5.652;2022-09-12T11:25:48;26.90;91.80
43089;DHT22;28709;52.030;5.652;2022-09-12T11:31:37;27.00;92.20
43089;DHT22;28709;52.030;5.652;2022-09-12T11:34:09;27.00;91.50
43089;DHT22;28709;52.030;5.652;2022-09-12T11:37:04;27.10;91.30
43089;DHT22;28709;52.030;5.652;2022-09-12T11:39:38;27.20;91.00
43089;DHT22;28709;52.030;5.652;2022-09-12T11:42:08;27.10;90.90
43089;DHT22;28709;52.030;5.652;2022-09-12T11:44:39;27.20;90.60
43089;DHT22;28709;52.030;5.652;2022-09-12T11:47:11;27.30;90.20
43089;DHT22;28709;52.030;5.652;2022-09-12T11:49:47;27.30;90.00
43089;DHT22;28709;52.030;5.652;2022-09-12T11:52:25;27.30;88.90
43089;DHT22;28709;52.030;5.652;2022-09-12T11:55:16;27.30;90.00
43089;DHT22;28709;52.030;5.652;2022-09-12T11:57:47;27.30;89.90
43089;DHT22;28709;52.030;5.652;2022-09-12T12:01:02;27.20;89.10
43089;DHT22;28709;52.030;5.652;2022-09-12T12:03:25;26.90;89.00
43089;DHT22;28709;52.030;5.652;2022-09-12T12:06:18;26.90;90.00
43089;DHT22;28709;52.030;5.652;2022-09-12T12:08:47;27.00;90.40
43089;DHT22;28709;52.030;5.652;2022-09-12T12:11:23;27.10;90.00
43089;DHT22;28709;52.030;5.652;2022-09-12T12:14:12;27.00;90.20
43089;DHT22;28709;52.030;5.652;2022-09-12T12:16:40;27.00;88.90
43089;DHT22;28709;52.030;5.652;2022-09-12T12:19:30;27.00;89.50
43089;DHT22;28709;52.030;5.652;2022-09-12T12:22:06;27.00;88.20
43089;DHT22;28709;52.030;5.652;2022-09-12T12:24:31;26.80;88.60
43089;DHT22;28709;52.030;5.652;2022-09-12T12:27:03;26.70;88.40
43089;DHT22;28709;52.030;5.652;2022-09-12T12:29:42;26.90;88.70
43089;DHT22;28709;52.030;5.652;2022-09-12T12:34:38;27.10;87.30
43089;DHT22;28709;52.030;5.652;2022-09-12T12:52:40;26.50;85.90
43089;DHT22;28709;52.030;5.652;2022-09-12T12:55:24;26.60;86.70
43089;DHT22;28709;52.030;5.652;2022-09-12T12:57:55;27.10;86.70
43089;DHT22;28709;52.030;5.652;2022-09-12T13:00:36;27.40;86.20
43089;DHT22;28709;52.030;5.652;2022-09-12T13:05:37;27.40;85.00
43089;DHT22;28709;52.030;5.652;2022-09-12T13:10:58;28.00;84.40
43089;DHT22;28709;52.030;5.652;2022-09-12T13:13:31;28.00;83.70
43089;DHT22;28709;52.030;5.652;2022-09-12T13:15:58;27.80;82.60
43089;DHT22;28709;52.030;5.652;2022-09-12T13:18:26;27.50;83.00
43089;DHT22;28709;52.030;5.652;2022-09-12T13:21:10;27.50;83.70
43089;DHT22;28709;52.030;5.652;2022-09-12T13:23:37;27.60;83.50
43089;DHT22;28709;52.030;5.652;2022-09-12T13:26:09;27.30;82.60
43089;DHT22;28709;52.030;5.652;2022-09-12T13:28:35;27.00;83.90
43089;DHT22;28709;52.030;5.652;2022-09-12T13:33:54;26.50;84.90
43089;DHT22;28709;52.030;5.652;2022-09-12T13:44:44;25.70;85.90
43089;DHT22;28709;52.030;5.652;2022-09-12T13:47:25;25.50;86.70
43089;DHT22;28709;52.030;5.652;2022-09-12T13:49:53;25.30;87.40
43089;DHT22;28709;52.030;5.652;2022-09-12T13:52:22;25.20;87.60
43089;DHT22;28709;52.030;5.652;2022-09-12T13:54:52;25.20;87.40
43089;DHT22;28709;52.030;5.652;2022-09-12T13:57:33;25.20;87.70
43089;DHT22;28709;52.030;5.652;2022-09-12T14:00:06;25.20;87.20
43089;DHT22;28709;52.030;5.652;2022-09-12T14:02:35;25.20;87.80
43089;DHT22;28709;52.030;5.652;2022-09-12T14:05:20;25.10;87.60
43089;DHT22;28709;52.030;5.652;2022-09-12T14:07:58;25.20;87.30
43089;DHT22;28709;52.030;5.652;2022-09-12T14:10:31;25.10;87.00
43089;DHT22;28709;52.030;5.652;2022-09-12T14:12:59;25.10;86.90
43089;DHT22;28709;52.030;5.652;2022-09-12T14:15:29;25.00;86.50
43089;DHT22;28709;52.030;5.652;2022-09-12T14:17:59;25.10;87.10
43089;DHT22;28709;52.030;5.652;2022-09-12T14:20:28;25.10;87.10
43089;DHT22;28709;52.030;5.652;2022-09-12T14:23:02;25.20;86.30
43089;DHT22;28709;52.030;5.652;2022-09-12T14:25:33;25.10;87.00
43089;DHT22;28709;52.030;5.652;2022-09-12T14:28:01;25.10;86.80
43089;DHT22;28709;52.030;5.652;2022-09-12T14:30:33;25.10;86.90
43089;DHT22;28709;52.030;5.652;2022-09-12T14:40:51;25.00;86.70
43089;DHT22;28709;52.030;5.652;2022-09-12T14:43:28;24.90;86.90
43089;DHT22;28709;52.030;5.652;2022-09-12T14:48:31;24.80;86.50
43089;DHT22;28709;52.030;5.652;2022-09-12T14:50:59;24.80;86.40
43089;DHT22;28709;52.030;5.652;2022-09-12T14:53:34;24.70;86.50
43089;DHT22;28709;52.030;5.652;2022-09-12T14:56:12;24.80;86.80
43089;DHT22;28709;52.030;5.652;2022-09-12T14:58:39;24.80;86.40
43089;DHT22;28709;52.030;5.652;2022-09-12T15:06:37;24.70;85.80
43089;DHT22;28709;52.030;5.652;2022-09-12T15:09:11;24.70;86.40
43089;DHT22;28709;52.030;5.652;2022-09-12T15:11:38;24.80;86.40
43089;DHT22;28709;52.030;5.652;2022-09-12T15:14:13;24.80;86.20
43089;DHT22;28709;52.030;5.652;2022-09-12T15:16:40;24.80;86.70
43089;DHT22;28709;52.030;5.652;2022-09-12T15:19:06;24.80;86.70
43089;DHT22;28709;52.030;5.652;2022-09-12T15:21:31;24.80;87.10
43089;DHT22;28709;52.030;5.652;2022-09-12T15:23:57;24.80;87.30
43089;DHT22;28709;52.030;5.652;2022-09-12T15:26:24;24.80;87.20
43089;DHT22;28709;52.030;5.652;2022-09-12T15:28:52;24.80;87.30
43089;DHT22;28709;52.030;5.652;2022-09-12T15:31:28;24.70;87.00
43089;DHT22;28709;52.030;5.652;2022-09-12T15:33:55;24.70;87.10
43089;DHT22;28709;52.030;5.652;2022-09-12T15:36:23;24.70;87.40
43089;DHT22;28709;52.030;5.652;2022-09-12T15:38:49;24.80;87.50
43089;DHT22;28709;52.030;5.652;2022-09-12T15:41:24;24.80;87.40
43089;DHT22;28709;52.030;5.652;2022-09-12T15:43:51;24.70;87.00
43089;DHT22;28709;52.030;5.652;2022-09-12T15:46:17;24.60;87.00
43089;DHT22;28709;52.030;5.652;2022-09-12T15:48:43;24.60;87.50
43089;DHT22;28709;52.030;5.652;2022-09-12T15:51:13;24.60;87.70
43089;DHT22;28709;52.030;5.652;2022-09-12T15:53:40;24.70;87.40
43089;DHT22;28709;52.030;5.652;2022-09-12T15:56:05;24.60;87.20
43089;DHT22;28709;52.030;5.652;2022-09-12T15:58:31;24.60;87.40
43089;DHT22;28709;52.030;5.652;2022-09-12T16:00:57;24.60;87.60
43089;DHT22;28709;52.030;5.652;2022-09-12T16:03:26;24.60;87.50
43089;DHT22;28709;52.030;5.652;2022-09-12T16:05:59;24.60;87.70
43089;DHT22;28709;52.030;5.652;2022-09-12T16:08:26;24.60;88.20
43089;DHT22;28709;52.030;5.652;2022-09-12T16:10:57;24.60;88.10
43089;DHT22;28709;52.030;5.652;2022-09-12T16:13:23;24.60;88.40
43089;DHT22;28709;52.030;5.652;2022-09-12T16:15:49;24.60;88.60
43089;DHT22;28709;52.030;5.652;2022-09-12T16:18:15;24.60;88.50
43089;DHT22;28709;52.030;5.652;2022-09-12T16:20:41;24.50;88.60
43089;DHT22;28709;52.030;5.652;2022-09-12T16:23:10;24.50;88.40
43089;DHT22;28709;52.030;5.652;2022-09-12T16:25:35;24.40;88.30
43089;DHT22;28709;52.030;5.652;2022-09-12T16:28:03;24.40;88.70
43089;DHT22;28709;52.030;5.652;2022-09-12T16:30:31;24.30;88.90
43089;DHT22;28709;52.030;5.652;2022-09-12T16:32:56;24.30;88.60
43089;DHT22;28709;52.030;5.652;2022-09-12T16:35:22;24.20;88.90
43089;DHT22;28709;52.030;5.652;2022-09-12T16:37:48;24.20;89.00
43089;DHT22;28709;52.030;5.652;2022-09-12T16:40:14;24.20;89.10
43089;DHT22;28709;52.030;5.652;2022-09-12T16:42:42;24.20;88.90
43089;DHT22;28709;52.030;5.652;2022-09-12T16:45:08;24.10;88.90
43089;DHT22;28709;52.030;5.652;2022-09-12T16:47:34;24.10;89.10
43089;DHT22;28709;52.030;5.652;2022-09-12T16:49:59;24.00;88.90
43089;DHT22;28709;52.030;5.652;2022-09-12T16:52:25;24.00;89.10
43089;DHT22;28709;52.030;5.652;2022-09-12T16:54:51;23.90;89.30
43089;DHT22;28709;52.030;5.652;2022-09-12T16:57:16;23.90;89.60
43089;DHT22;28709;52.030;5.652;2022-09-12T16:59:42;23.80;89.80
43089;DHT22;28709;52.030;5.652;2022-09-12T17:02:11;23.70;90.00
43089;DHT22;28709;52.030;5.652;2022-09-12T17:04:38;23.70;90.10
43089;DHT22;28709;52.030;5.652;2022-09-12T17:07:03;23.70;90.30
43089;DHT22;28709;52.030;5.652;2022-09-12T17:09:29;23.70;90.40
43089;DHT22;28709;52.030;5.652;2022-09-12T17:11:55;23.70;90.50
43089;DHT22;28709;52.030;5.652;2022-09-12T17:14:21;23.60;90.60
43089;DHT22;28709;52.030;5.652;2022-09-12T17:16:46;23.50;90.70
43089;DHT22;28709;52.030;5.652;2022-09-12T17:19:14;23.50;90.80
43089;DHT22;28709;52.030;5.652;2022-09-12T17:21:40;23.50;90.90
43089;DHT22;28709;52.030;5.652;2022-09-12T17:24:06;23.50;91.00
43089;DHT22;28709;52.030;5.652;2022-09-12T17:26:32;23.40;91.10
43089;DHT22;28709;52.030;5.652;2022-09-12T17:28:57;23.40;91.20
43089;DHT22;28709;52.030;5.652;2022-09-12T17:31:23;23.30;91.30
43089;DHT22;28709;52.030;5.652;2022-09-12T17:33:49;23.30;91.30
43089;DHT22;28709;52.030;5.652;2022-09-12T17:36:16;23.30;91.40
43089;DHT22;28709;52.030;5.652;2022-09-12T17:38:43;23.20;91.50
43089;DHT22;28709;52.030;5.652;2022-09-12T17:41:14;23.20;91.60
43089;DHT22;28709;52.030;5.652;2022-09-12T17:43:45;23.20;91.70
43089;DHT22;28709;52.030;5.652;2022-09-12T17:46:12;23.20;91.80
43089;DHT22;28709;52.030;5.652;2022-09-12T17:48:38;23.20;91.80
43089;DHT22;28709;52.030;5.652;2022-09-12T17:51:12;23.10;91.90
43089;DHT22;28709;52.030;5.652;2022-09-12T17:53:39;23.10;92.00
43089;DHT22;28709;52.030;5.652;2022-09-12T17:56:05;23.10;92.00
43089;DHT22;28709;52.030;5.652;2022-09-12T17:58:32;23.00;92.10